Yamato — JD2252 — position and weather

sailwx.info

Track history (hours):
 
Tides and Currents Weather Stations Pressure Air Temp Water Temp Dewpoint Dewpoint Depression Visibility Wind Speed Wind Dir Waves Ship Positions

Yamato

Last reported at 2017-Nov-24 05:30 UTC. Time now 2017-Nov-24 05:35 UTC.
Position N 35°27' E 139°39'.

Length 43 m; draft 3.6 m.

Type: Tug. MMSI: 431101141.

Date/timePositionNaut miles runAvg speedWind from/ knotsBaromVisibWave heightAir tempDewpointWater temp
2017-Nov-24 05:30N 35°27' E 139°39'0 0.0
2017-Nov-24 05:01N 35°27' E 139°39'0 0.0
2017-Nov-24 04:30N 35°27' E 139°39'0 0.0
2017-Nov-24 04:00N 35°27' E 139°39'0 0.0
2017-Nov-24 03:30N 35°27' E 139°39'0 0.0
2017-Nov-24 03:00N 35°27' E 139°39'0 0.0
2017-Nov-24 02:30N 35°27' E 139°39'0 0.0
2017-Nov-24 02:00N 35°27' E 139°39'0 0.0
2017-Nov-24 01:30N 35°27' E 139°39'0 0.0
2017-Nov-24 01:00N 35°27' E 139°39'0 0.0
2017-Nov-24 00:30N 35°27' E 139°39'0 0.0
2017-Nov-24 00:00N 35°27' E 139°39'0 0.0
2017-Nov-23 23:30N 35°27' E 139°39'1 1.3
2017-Nov-23 23:01N 35°27' E 139°39'2 3.4
2017-Nov-23 22:30N 35°28' E 139°41'0 0.3
2017-Nov-23 22:00N 35°28' E 139°42'1 2.5
2017-Nov-23 21:30N 35°27' E 139°43'1 1.7
2017-Nov-23 21:00N 35°27' E 139°42'0 0.0
2017-Nov-23 20:30N 35°27' E 139°42'0 0.0
2017-Nov-23 20:01N 35°27' E 139°42'0 0.0
2017-Nov-23 19:30N 35°27' E 139°42'0 0.0
2017-Nov-23 19:00N 35°27' E 139°42'1 2.2
2017-Nov-23 18:31N 35°27' E 139°41'1 2.4
2017-Nov-23 18:00N 35°25' E 139°42'0 0.0
2017-Nov-23 17:30N 35°25' E 139°42'0 0.1
2017-Nov-23 17:01N 35°25' E 139°42'0 0.0
2017-Nov-23 16:30N 35°25' E 139°42'0 0.1
2017-Nov-23 16:00N 35°25' E 139°42'0 0.0
2017-Nov-23 15:30N 35°25' E 139°42'0 0.0
2017-Nov-23 15:01N 35°25' E 139°42'0 0.0
2017-Nov-23 14:30N 35°25' E 139°42'0 0.0
2017-Nov-23 14:00N 35°25' E 139°42'0 0.0
2017-Nov-23 13:30N 35°25' E 139°42'0 0.0
2017-Nov-23 13:01N 35°25' E 139°42'0 0.0
2017-Nov-23 12:30N 35°25' E 139°42'0 0.1
2017-Nov-23 12:00N 35°26' E 139°42'2 3.2
2017-Nov-23 11:30N 35°24' E 139°41'1 1.9
2017-Nov-23 11:01N 35°23' E 139°41'2 3.5
2017-Nov-23 10:31N 35°25' E 139°42'1 1.4
2017-Nov-23 10:01N 35°26' E 139°42'1 2.1
2017-Nov-23 09:30N 35°25' E 139°42'1 1.8
2017-Nov-23 09:00N 35°24' E 139°41'1 2.1
2017-Nov-23 08:30N 35°25' E 139°42'4 7.6
2017-Nov-23 08:00N 35°27' E 139°39'0 0.0
2017-Nov-23 07:30N 35°27' E 139°39'0 0.0
2017-Nov-23 07:00N 35°27' E 139°39'0 0.0
2017-Nov-23 06:30N 35°27' E 139°39'0 0.0
2017-Nov-23 06:00N 35°27' E 139°39'0 0.0
2017-Nov-23 05:30N 35°27' E 139°39'0 0.0
2017-Nov-23 05:00N 35°27' E 139°39'0 0.0
2017-Nov-23 04:30N 35°27' E 139°39'0 0.0
2017-Nov-23 04:00N 35°27' E 139°39'0 0.0
2017-Nov-23 03:30N 35°27' E 139°39'0 0.0
2017-Nov-23 03:00N 35°27' E 139°39'0 0.0
2017-Nov-23 02:30N 35°27' E 139°39'0 0.0
2017-Nov-23 02:01N 35°27' E 139°39'0 0.0
2017-Nov-23 01:30N 35°27' E 139°39'0 0.0
2017-Nov-23 01:00N 35°27' E 139°39'0 0.0
2017-Nov-23 00:30N 35°27' E 139°39'0 0.0
2017-Nov-23 00:00N 35°27' E 139°39'0 0.0
2017-Nov-22 23:31N 35°27' E 139°39'0 0.0
2017-Nov-22 23:00N 35°27' E 139°39'0 0.0
2017-Nov-22 22:30N 35°27' E 139°39'0 0.0
2017-Nov-22 22:00N 35°27' E 139°39'0 0.0
2017-Nov-22 21:30N 35°27' E 139°39'0 0.0
2017-Nov-22 21:00N 35°27' E 139°39'0 0.0
2017-Nov-22 20:31N 35°27' E 139°39'0 0.0
2017-Nov-22 20:00N 35°27' E 139°39'0 0.0
2017-Nov-22 19:30N 35°27' E 139°39'  
2017-Nov-20 00:30N 35°30' E 139°56'3 5.5
2017-Nov-20 00:00N 35°29' E 139°53'0 0.7
2017-Nov-19 23:29N 35°29' E 139°53'1 1.3
2017-Nov-19 23:00N 35°29' E 139°53'4 7.6
2017-Nov-19 22:31N 35°27' E 139°48'4 8.5
2017-Nov-19 22:01N 35°27' E 139°43'1 2.7
2017-Nov-19 21:31N 35°28' E 139°42'0 0.0
2017-Nov-19 21:00N 35°28' E 139°42'0 0.1
2017-Nov-19 20:31N 35°28' E 139°42'3 5.4
2017-Nov-19 20:01N 35°27' E 139°39'0 0.0
2017-Nov-19 19:30N 35°27' E 139°39'0 0.0
2017-Nov-19 19:00N 35°27' E 139°39'0 0.0
2017-Nov-19 18:31N 35°27' E 139°39'0 0.0
2017-Nov-19 18:00N 35°27' E 139°39'0 0.0
2017-Nov-19 17:30N 35°27' E 139°39'0 0.0
2017-Nov-19 17:01N 35°27' E 139°39'0 0.0
2017-Nov-19 16:31N 35°27' E 139°39'0 0.0
2017-Nov-19 16:00N 35°27' E 139°39'0 0.0
2017-Nov-19 15:31N 35°27' E 139°39'0 0.0
2017-Nov-19 15:01N 35°27' E 139°39'0 0.0
2017-Nov-19 14:30N 35°27' E 139°39'0 0.0
2017-Nov-19 14:00N 35°27' E 139°39'0 0.0
2017-Nov-19 13:30N 35°27' E 139°39'0 0.0
2017-Nov-19 13:01N 35°27' E 139°39'0 0.0
2017-Nov-19 12:31N 35°27' E 139°39'0 0.0
2017-Nov-19 12:01N 35°27' E 139°39'0 0.0
2017-Nov-19 11:31N 35°27' E 139°39'0 0.0
2017-Nov-19 11:00N 35°27' E 139°39'0 0.0
2017-Nov-19 10:30N 35°27' E 139°39'0 0.0
2017-Nov-19 10:00N 35°27' E 139°39'0 0.0
2017-Nov-19 09:30N 35°27' E 139°39'0 0.0
2017-Nov-19 09:01N 35°27' E 139°39'2 4.6
2017-Nov-19 08:31N 35°27' E 139°41'1 1.4
2017-Nov-19 08:01N 35°28' E 139°42'0 0.2
2017-Nov-19 07:30N 35°28' E 139°41'2 4.6
2017-Nov-19 07:01N 35°27' E 139°39'0 0.0
2017-Nov-19 06:30N 35°27' E 139°39'0 0.0
2017-Nov-19 06:00N 35°27' E 139°39'0 0.0
2017-Nov-19 05:30N 35°27' E 139°39'0 0.0
2017-Nov-19 05:00N 35°27' E 139°39'0 0.0
2017-Nov-19 04:31N 35°27' E 139°39'1 2.1
2017-Nov-19 04:00N 35°27' E 139°40'4 7.4
2017-Nov-19 03:30N 35°24' E 139°42'1 1.4
2017-Nov-19 03:00N 35°24' E 139°41'1 1.5
2017-Nov-19 02:30N 35°23' E 139°41'4 7.5
2017-Nov-19 02:00N 35°27' E 139°41'2 3.4
2017-Nov-19 01:30N 35°27' E 139°39'0 0.0
2017-Nov-19 01:00N 35°27' E 139°39'0 0.0
2017-Nov-19 00:31N 35°27' E 139°39'0 0.0
2017-Nov-19 00:00N 35°27' E 139°39'2 4.2
2017-Nov-18 23:30N 35°26' E 139°41'1 0.0
2017-Nov-17 20:49N 35°27' E 139°42'2 0.0
2017-Nov-15 23:23N 35°27' E 139°40'1 2.8
2017-Nov-15 22:59N 35°26' E 139°41'4 1.0
2017-Nov-15 18:51N 35°28' E 139°46'4 2.1
2017-Nov-15 16:56N 35°27' E 139°41'1 0.1
2017-Nov-15 11:59N 35°27' E 139°40'1 0.3
2017-Nov-15 09:47N 35°27' E 139°41'1 4.3
2017-Nov-15 09:27N 35°26' E 139°42'1 1.8
2017-Nov-15 08:57N 35°25' E 139°41'2 2.3
2017-Nov-15 08:08N 35°27' E 139°40'6 0.7
2017-Nov-15 00:17N 35°31' E 139°46'410.1
2017-Nov-14 23:53N 35°29' E 139°42'  
Track history (hours):
 
Tides and Currents Weather Stations Pressure Air Temp Water Temp Dewpoint Dewpoint Depression Visibility Wind Speed Wind Dir Waves Ship Positions

Yamato

Last reported at 2017-Nov-24 05:30 UTC. Time now 2017-Nov-24 05:35 UTC.
Position N 35°27' E 139°39'.

Length 43 m; draft 3.6 m.

Type: Tug. MMSI: 431101141.

Date/timePositionNaut miles runAvg speedWind from/ knotsBaromVisibWave heightAir tempDewpointWater temp
2017-Nov-24 05:30N 35°27' E 139°39'0 0.0
2017-Nov-24 05:01N 35°27' E 139°39'0 0.0
2017-Nov-24 04:30N 35°27' E 139°39'0 0.0
2017-Nov-24 04:00N 35°27' E 139°39'0 0.0
2017-Nov-24 03:30N 35°27' E 139°39'0 0.0
2017-Nov-24 03:00N 35°27' E 139°39'0 0.0
2017-Nov-24 02:30N 35°27' E 139°39'0 0.0
2017-Nov-24 02:00N 35°27' E 139°39'0 0.0
2017-Nov-24 01:30N 35°27' E 139°39'0 0.0
2017-Nov-24 01:00N 35°27' E 139°39'0 0.0
2017-Nov-24 00:30N 35°27' E 139°39'0 0.0
2017-Nov-24 00:00N 35°27' E 139°39'0 0.0
2017-Nov-23 23:30N 35°27' E 139°39'1 1.3
2017-Nov-23 23:01N 35°27' E 139°39'2 3.4
2017-Nov-23 22:30N 35°28' E 139°41'0 0.3
2017-Nov-23 22:00N 35°28' E 139°42'1 2.5
2017-Nov-23 21:30N 35°27' E 139°43'1 1.7
2017-Nov-23 21:00N 35°27' E 139°42'0 0.0
2017-Nov-23 20:30N 35°27' E 139°42'0 0.0
2017-Nov-23 20:01N 35°27' E 139°42'0 0.0
2017-Nov-23 19:30N 35°27' E 139°42'0 0.0
2017-Nov-23 19:00N 35°27' E 139°42'1 2.2
2017-Nov-23 18:31N 35°27' E 139°41'1 2.4
2017-Nov-23 18:00N 35°25' E 139°42'0 0.0
2017-Nov-23 17:30N 35°25' E 139°42'0 0.1
2017-Nov-23 17:01N 35°25' E 139°42'0 0.0
2017-Nov-23 16:30N 35°25' E 139°42'0 0.1
2017-Nov-23 16:00N 35°25' E 139°42'0 0.0
2017-Nov-23 15:30N 35°25' E 139°42'0 0.0
2017-Nov-23 15:01N 35°25' E 139°42'0 0.0
2017-Nov-23 14:30N 35°25' E 139°42'0 0.0
2017-Nov-23 14:00N 35°25' E 139°42'0 0.0
2017-Nov-23 13:30N 35°25' E 139°42'0 0.0
2017-Nov-23 13:01N 35°25' E 139°42'0 0.0
2017-Nov-23 12:30N 35°25' E 139°42'0 0.1
2017-Nov-23 12:00N 35°26' E 139°42'2 3.2
2017-Nov-23 11:30N 35°24' E 139°41'1 1.9
2017-Nov-23 11:01N 35°23' E 139°41'2 3.5
2017-Nov-23 10:31N 35°25' E 139°42'1 1.4
2017-Nov-23 10:01N 35°26' E 139°42'1 2.1
2017-Nov-23 09:30N 35°25' E 139°42'1 1.8
2017-Nov-23 09:00N 35°24' E 139°41'1 2.1
2017-Nov-23 08:30N 35°25' E 139°42'4 7.6
2017-Nov-23 08:00N 35°27' E 139°39'0 0.0
2017-Nov-23 07:30N 35°27' E 139°39'0 0.0
2017-Nov-23 07:00N 35°27' E 139°39'0 0.0
2017-Nov-23 06:30N 35°27' E 139°39'0 0.0
2017-Nov-23 06:00N 35°27' E 139°39'0 0.0
2017-Nov-23 05:30N 35°27' E 139°39'0 0.0
2017-Nov-23 05:00N 35°27' E 139°39'0 0.0
2017-Nov-23 04:30N 35°27' E 139°39'0 0.0
2017-Nov-23 04:00N 35°27' E 139°39'0 0.0
2017-Nov-23 03:30N 35°27' E 139°39'0 0.0
2017-Nov-23 03:00N 35°27' E 139°39'0 0.0
2017-Nov-23 02:30N 35°27' E 139°39'0 0.0
2017-Nov-23 02:01N 35°27' E 139°39'0 0.0
2017-Nov-23 01:30N 35°27' E 139°39'0 0.0
2017-Nov-23 01:00N 35°27' E 139°39'0 0.0
2017-Nov-23 00:30N 35°27' E 139°39'0 0.0
2017-Nov-23 00:00N 35°27' E 139°39'0 0.0
2017-Nov-22 23:31N 35°27' E 139°39'0 0.0
2017-Nov-22 23:00N 35°27' E 139°39'0 0.0
2017-Nov-22 22:30N 35°27' E 139°39'0 0.0
2017-Nov-22 22:00N 35°27' E 139°39'0 0.0
2017-Nov-22 21:30N 35°27' E 139°39'0 0.0
2017-Nov-22 21:00N 35°27' E 139°39'0 0.0
2017-Nov-22 20:31N 35°27' E 139°39'0 0.0
2017-Nov-22 20:00N 35°27' E 139°39'0 0.0
2017-Nov-22 19:30N 35°27' E 139°39'  
2017-Nov-20 00:30N 35°30' E 139°56'3 5.5
2017-Nov-20 00:00N 35°29' E 139°53'0 0.7
2017-Nov-19 23:29N 35°29' E 139°53'1 1.3
2017-Nov-19 23:00N 35°29' E 139°53'4 7.6
2017-Nov-19 22:31N 35°27' E 139°48'4 8.5
2017-Nov-19 22:01N 35°27' E 139°43'1 2.7
2017-Nov-19 21:31N 35°28' E 139°42'0 0.0
2017-Nov-19 21:00N 35°28' E 139°42'0 0.1
2017-Nov-19 20:31N 35°28' E 139°42'3 5.4
2017-Nov-19 20:01N 35°27' E 139°39'0 0.0
2017-Nov-19 19:30N 35°27' E 139°39'0 0.0
2017-Nov-19 19:00N 35°27' E 139°39'0 0.0
2017-Nov-19 18:31N 35°27' E 139°39'0 0.0
2017-Nov-19 18:00N 35°27' E 139°39'0 0.0
2017-Nov-19 17:30N 35°27' E 139°39'0 0.0
2017-Nov-19 17:01N 35°27' E 139°39'0 0.0
2017-Nov-19 16:31N 35°27' E 139°39'0 0.0
2017-Nov-19 16:00N 35°27' E 139°39'0 0.0
2017-Nov-19 15:31N 35°27' E 139°39'0 0.0
2017-Nov-19 15:01N 35°27' E 139°39'0 0.0
2017-Nov-19 14:30N 35°27' E 139°39'0 0.0
2017-Nov-19 14:00N 35°27' E 139°39'0 0.0
2017-Nov-19 13:30N 35°27' E 139°39'0 0.0
2017-Nov-19 13:01N 35°27' E 139°39'0 0.0
2017-Nov-19 12:31N 35°27' E 139°39'0 0.0
2017-Nov-19 12:01N 35°27' E 139°39'0 0.0
2017-Nov-19 11:31N 35°27' E 139°39'0 0.0
2017-Nov-19 11:00N 35°27' E 139°39'0 0.0
2017-Nov-19 10:30N 35°27' E 139°39'0 0.0
2017-Nov-19 10:00N 35°27' E 139°39'0 0.0
2017-Nov-19 09:30N 35°27' E 139°39'0 0.0
2017-Nov-19 09:01N 35°27' E 139°39'2 4.6
2017-Nov-19 08:31N 35°27' E 139°41'1 1.4
2017-Nov-19 08:01N 35°28' E 139°42'0 0.2
2017-Nov-19 07:30N 35°28' E 139°41'2 4.6
2017-Nov-19 07:01N 35°27' E 139°39'0 0.0
2017-Nov-19 06:30N 35°27' E 139°39'0 0.0
2017-Nov-19 06:00N 35°27' E 139°39'0 0.0
2017-Nov-19 05:30N 35°27' E 139°39'0 0.0
2017-Nov-19 05:00N 35°27' E 139°39'0 0.0
2017-Nov-19 04:31N 35°27' E 139°39'1 2.1
2017-Nov-19 04:00N 35°27' E 139°40'4 7.4
2017-Nov-19 03:30N 35°24' E 139°42'1 1.4
2017-Nov-19 03:00N 35°24' E 139°41'1 1.5
2017-Nov-19 02:30N 35°23' E 139°41'4 7.5
2017-Nov-19 02:00N 35°27' E 139°41'2 3.4
2017-Nov-19 01:30N 35°27' E 139°39'0 0.0
2017-Nov-19 01:00N 35°27' E 139°39'0 0.0
2017-Nov-19 00:31N 35°27' E 139°39'0 0.0
2017-Nov-19 00:00N 35°27' E 139°39'2 4.2
2017-Nov-18 23:30N 35°26' E 139°41'1 0.0
2017-Nov-17 20:49N 35°27' E 139°42'2 0.0
2017-Nov-15 23:23N 35°27' E 139°40'1 2.8
2017-Nov-15 22:59N 35°26' E 139°41'4 1.0
2017-Nov-15 18:51N 35°28' E 139°46'4 2.1
2017-Nov-15 16:56N 35°27' E 139°41'1 0.1
2017-Nov-15 11:59N 35°27' E 139°40'1 0.3
2017-Nov-15 09:47N 35°27' E 139°41'1 4.3
2017-Nov-15 09:27N 35°26' E 139°42'1 1.8
2017-Nov-15 08:57N 35°25' E 139°41'2 2.3
2017-Nov-15 08:08N 35°27' E 139°40'6 0.7
2017-Nov-15 00:17N 35°31' E 139°46'410.1
2017-Nov-14 23:53N 35°29' E 139°42'  

Dump ship's entire track history